CheckWX is a tool to help pilots better visualize weather data.  It is not intended as a substitute for an official pre-flight weather briefing.

20:26:11 UTC

5M9 METAR
Marion-Crittenden County Airport
Marion, Kentucky, USA
Current

11 mins ago

K5M9 202015Z AUTO 01013G21KT 330V030 10SM CLR 16/M01 A2980 RMK AO2 T01631011
Observed
Apr-20 @ 20:15 UTC
Wind
  • 010° at 13 KTS
  • Gusting to 21 KTS
Visibility
10 SM
Flight Rules
VFR
Cloud Levels
  • Clear skies
Temperature
16°C / 61°F
Dewpoint
-1°C / 30°F
Humidity
31%
Altimeter
29.8" Hg
Pressure
1009.12 hPa
Previous

31 mins ago

K5M9 201955Z AUTO 33015G21KT 10SM CLR 16/M01 A2980 RMK AO2 T01611010
Observed
Apr-20 @ 19:55 UTC
Wind
  • 330° at 15 KTS
  • Gusting to 21 KTS
Visibility
10 SM
Flight Rules
VFR
Cloud Levels
  • Clear skies
Temperature
16°C / 61°F
Dewpoint
-1°C / 30°F
Humidity
31%
Altimeter
29.8" Hg
Pressure
1009.12 hPa
Previous

51 mins ago

K5M9 201935Z AUTO 33016G23KT 10SM CLR 16/M01 A2980 RMK AO2 T01561009
Observed
Apr-20 @ 19:35 UTC
Wind
  • 330° at 16 KTS
  • Gusting to 23 KTS
Visibility
10 SM
Flight Rules
VFR
Cloud Levels
  • Clear skies
Temperature
16°C / 61°F
Dewpoint
-1°C / 30°F
Humidity
31%
Altimeter
29.8" Hg
Pressure
1009.12 hPa